createdAt,value
2019-01-14T00:02:29.623Z,87.39
2019-01-14T00:05:01.236Z,87.03
2019-01-14T00:07:33.027Z,87.32
2019-01-14T00:10:05.519Z,87.06
2019-01-14T00:12:37.149Z,87.10
2019-01-14T00:15:11.667Z,87.09
2019-01-14T00:17:43.273Z,87.15
2019-01-14T00:20:15.334Z,87.27
2019-01-14T00:22:47.032Z,86.70
2019-01-14T00:25:21.634Z,86.76
2019-01-14T00:27:53.268Z,86.54
2019-01-14T00:30:24.844Z,86.21
2019-01-14T00:32:56.455Z,85.95
2019-01-14T00:35:28.024Z,85.80
2019-01-14T00:37:59.732Z,84.88
2019-01-14T00:40:31.336Z,84.78
2019-01-14T00:43:04.895Z,85.12
2019-01-14T00:45:38.564Z,83.62
2019-01-14T00:48:10.279Z,83.52
2019-01-14T00:50:41.875Z,83.52
2019-01-14T00:53:13.571Z,83.76
2019-01-14T00:55:45.152Z,83.68
2019-01-14T00:58:16.730Z,82.93
2019-01-14T01:00:50.743Z,82.24
2019-01-14T01:03:22.331Z,83.15
2019-01-14T01:05:53.914Z,82.71
2019-01-14T01:08:25.580Z,83.03
2019-01-14T01:10:57.181Z,82.74
2019-01-14T01:13:28.763Z,82.57
2019-01-14T01:16:00.333Z,82.88
2019-01-14T01:18:31.946Z,82.70
2019-01-14T01:21:04.497Z,82.33
2019-01-14T01:23:36.095Z,82.67
2019-01-14T01:26:07.680Z,82.28
2019-01-14T01:28:39.269Z,82.37
2019-01-14T01:31:10.856Z,82.46
2019-01-14T01:33:42.561Z,82.21
2019-01-14T01:36:14.162Z,82.57
2019-01-14T01:38:45.783Z,82.42
2019-01-14T01:41:17.372Z,82.03
2019-01-14T01:43:48.945Z,82.00
2019-01-14T01:46:20.650Z,82.28
2019-01-14T01:48:55.016Z,82.53
2019-01-14T01:51:26.638Z,82.72
2019-01-14T01:53:58.206Z,82.96
2019-01-14T01:56:29.931Z,82.92
2019-01-14T01:59:01.506Z,83.04
2019-01-14T02:01:36.157Z,83.09
2019-01-14T02:04:07.831Z,83.01
2019-01-14T02:06:39.717Z,83.17
2019-01-14T02:09:11.304Z,83.30
2019-01-14T02:11:42.924Z,83.41
2019-01-14T02:14:14.674Z,83.67
2019-01-14T02:16:46.673Z,83.81
2019-01-14T02:19:18.259Z,83.84
2019-01-14T02:21:51.480Z,83.78
2019-01-14T02:24:23.162Z,83.81
2019-01-14T02:26:55.047Z,83.78
2019-01-14T02:29:26.629Z,83.56
2019-01-14T02:31:58.512Z,83.76
2019-01-14T02:34:31.053Z,83.58
2019-01-14T02:37:02.770Z,83.11
2019-01-14T02:39:34.469Z,82.69
2019-01-14T02:42:06.262Z,82.99
2019-01-14T02:44:39.059Z,82.36
2019-01-14T02:47:10.635Z,82.21
2019-01-14T02:49:42.482Z,81.81
2019-01-14T02:52:14.342Z,81.99
2019-01-14T02:54:45.903Z,81.91
2019-01-14T02:57:17.558Z,81.70
2019-01-14T02:59:49.141Z,81.23
2019-01-14T03:02:20.721Z,80.90
2019-01-14T03:04:52.587Z,81.33
2019-01-14T03:07:25.544Z,81.21
2019-01-14T03:09:57.235Z,81.27
2019-01-14T03:12:30.452Z,81.38
2019-01-14T03:15:02.047Z,81.37
2019-01-14T03:17:33.915Z,81.16
2019-01-14T03:20:08.320Z,81.30
2019-01-14T03:22:40.191Z,81.13
2019-01-14T03:25:13.605Z,80.85
2019-01-14T03:27:45.447Z,80.94
2019-01-14T03:30:21.035Z,80.72
2019-01-14T03:32:53.014Z,80.85
2019-01-14T03:35:24.977Z,80.97
2019-01-14T03:37:56.815Z,80.72
2019-01-14T03:40:28.682Z,80.73
2019-01-14T03:43:00.667Z,80.59
2019-01-14T03:45:32.527Z,81.05
2019-01-14T03:48:06.251Z,80.72
2019-01-14T03:50:38.121Z,81.18
2019-01-14T03:53:09.738Z,82.01
2019-01-14T03:55:41.654Z,82.06
2019-01-14T03:58:13.519Z,82.36
2019-01-14T04:00:45.087Z,81.99
2019-01-14T04:03:16.974Z,82.16
2019-01-14T04:05:54.504Z,82.07
2019-01-14T04:08:26.297Z,81.83
2019-01-14T04:10:57.894Z,81.66
2019-01-14T04:13:29.504Z,81.46
2019-01-14T04:16:01.365Z,80.63
2019-01-14T04:18:33.041Z,81.08
2019-01-14T04:21:04.598Z,80.73
2019-01-14T04:23:36.467Z,79.63
2019-01-14T04:26:08.057Z,79.62
2019-01-14T04:28:39.939Z,79.38
2019-01-14T04:31:11.508Z,79.75
2019-01-14T04:33:43.103Z,79.52
2019-01-14T04:36:14.975Z,79.15
2019-01-14T04:38:47.194Z,78.71
2019-01-14T04:41:18.783Z,78.42
2019-01-14T04:43:50.834Z,78.46
2019-01-14T04:46:22.456Z,77.95
2019-01-14T04:48:54.030Z,77.58
2019-01-14T04:51:28.686Z,77.54
2019-01-14T04:54:00.237Z,77.57
2019-01-14T04:56:32.092Z,77.24
2019-01-14T04:59:03.686Z,76.41
2019-01-14T05:01:35.618Z,76.27
2019-01-14T05:04:07.305Z,76.57
2019-01-14T05:06:39.766Z,76.26
2019-01-14T05:09:11.362Z,76.52
2019-01-14T05:11:42.980Z,76.50
2019-01-14T05:14:14.563Z,76.46
2019-01-14T05:16:46.151Z,76.75
2019-01-14T05:19:18.038Z,76.86
2019-01-14T05:21:50.171Z,76.65
2019-01-14T05:24:21.860Z,76.74
2019-01-14T05:26:53.729Z,76.73
2019-01-14T05:29:25.336Z,75.94
2019-01-14T05:32:03.799Z,76.12
2019-01-14T05:34:35.406Z,76.00
2019-01-14T05:37:06.995Z,75.57
2019-01-14T05:39:38.579Z,75.95
2019-01-14T05:42:10.250Z,76.00
2019-01-14T05:44:41.849Z,75.78
2019-01-14T05:47:13.410Z,76.18
2019-01-14T05:49:45.007Z,76.17
2019-01-14T05:52:16.598Z,76.01
2019-01-14T05:54:48.178Z,76.55
2019-01-14T05:57:19.775Z,76.52
2019-01-14T05:59:51.468Z,76.79
2019-01-14T06:02:23.059Z,77.05
2019-01-14T06:04:54.667Z,77.13
2019-01-14T06:07:26.332Z,77.29
2019-01-14T06:09:57.973Z,77.25
2019-01-14T06:12:29.613Z,76.87
2019-01-14T06:15:01.314Z,76.80
2019-01-14T06:17:32.923Z,76.96
2019-01-14T06:20:06.933Z,76.87
2019-01-14T06:22:38.669Z,77.24
2019-01-14T06:25:11.612Z,77.34
2019-01-14T06:27:43.263Z,77.42
2019-01-14T06:30:22.244Z,77.48
2019-01-14T06:32:53.847Z,77.69
2019-01-14T06:35:25.424Z,77.56
2019-01-14T06:37:57.012Z,77.87
2019-01-14T06:40:28.607Z,78.48
2019-01-14T06:43:03.536Z,78.50
2019-01-14T06:45:35.129Z,78.39
2019-01-14T06:48:07.454Z,78.21
2019-01-14T06:50:39.059Z,78.00
2019-01-14T06:53:12.842Z,77.56
2019-01-14T06:55:44.679Z,77.32
2019-01-14T06:58:16.533Z,77.65
2019-01-14T07:00:49.001Z,77.75
2019-01-14T07:03:20.544Z,78.06
2019-01-14T07:05:52.224Z,77.99
2019-01-14T07:08:23.804Z,78.02
2019-01-14T07:10:55.685Z,78.32
2019-01-14T07:13:27.263Z,78.47
2019-01-14T07:15:58.864Z,78.10
2019-01-14T07:18:30.551Z,78.19
2019-01-14T07:21:02.240Z,77.94
2019-01-14T07:23:33.811Z,78.07
2019-01-14T07:26:07.470Z,77.80
2019-01-14T07:28:39.051Z,78.13
2019-01-14T07:31:10.667Z,78.30
2019-01-14T07:33:42.341Z,78.28
2019-01-14T07:36:13.991Z,77.76
2019-01-14T07:38:45.671Z,77.91
2019-01-14T07:41:17.650Z,77.80
2019-01-14T07:43:49.683Z,77.57
2019-01-14T07:46:21.319Z,77.96
2019-01-14T07:48:52.938Z,77.84
2019-01-14T07:51:24.583Z,77.70
2019-01-14T07:53:56.175Z,77.62
2019-01-14T07:56:30.394Z,77.40
2019-01-14T07:59:05.045Z,76.83
2019-01-14T08:01:35.256Z,77.20
2019-01-14T08:04:06.875Z,77.30
2019-01-14T08:06:38.469Z,77.23
2019-01-14T08:09:12.271Z,77.48
2019-01-14T08:11:43.875Z,77.05
2019-01-14T08:14:15.532Z,77.16
2019-01-14T08:16:47.102Z,77.15
2019-01-14T08:19:21.857Z,77.19
2019-01-14T08:21:56.658Z,77.28
2019-01-14T08:24:30.049Z,77.90
2019-01-14T08:27:03.918Z,78.05
2019-01-14T08:29:35.785Z,77.16
2019-01-14T08:32:07.473Z,77.71
2019-01-14T08:34:39.096Z,77.82
2019-01-14T08:37:11.007Z,77.48
2019-01-14T08:39:42.614Z,77.21
2019-01-14T08:42:14.766Z,77.59
2019-01-14T08:44:46.518Z,77.65
2019-01-14T08:47:18.403Z,76.86
2019-01-14T08:49:50.118Z,77.31
2019-01-14T08:52:21.689Z,77.20
2019-01-14T08:54:53.259Z,77.08
2019-01-14T08:57:24.969Z,77.57
2019-01-14T08:59:56.549Z,77.77
2019-01-14T09:02:28.156Z,77.46
2019-01-14T09:05:00.214Z,77.36
2019-01-14T09:07:35.327Z,77.64
2019-01-14T09:10:12.131Z,77.37
2019-01-14T09:12:43.838Z,77.00
2019-01-14T09:15:16.651Z,77.04
2019-01-14T09:17:48.685Z,77.03
2019-01-14T09:20:23.175Z,77.08
2019-01-14T09:22:54.799Z,76.76
2019-01-14T09:25:26.375Z,77.02
2019-01-14T09:27:57.958Z,76.59
2019-01-14T09:30:29.574Z,76.77
2019-01-14T09:33:01.268Z,76.45
2019-01-14T09:35:34.719Z,76.13
2019-01-14T09:38:06.576Z,76.70
2019-01-14T09:40:38.196Z,76.56
2019-01-14T09:43:11.122Z,76.97
2019-01-14T09:45:45.700Z,76.83
2019-01-14T09:48:17.279Z,76.35
2019-01-14T09:50:48.903Z,76.23
2019-01-14T09:53:20.524Z,76.18
2019-01-14T09:55:54.714Z,76.89
2019-01-14T09:58:26.302Z,76.59
2019-01-14T10:00:59.310Z,76.86
2019-01-14T10:03:30.902Z,76.54
2019-01-14T10:06:02.464Z,76.74
2019-01-14T10:08:34.569Z,76.48
2019-01-14T10:11:06.221Z,76.59
2019-01-14T10:13:37.821Z,76.41
2019-01-14T10:16:09.413Z,76.33
2019-01-14T10:18:41.024Z,76.09
2019-01-14T10:21:16.078Z,75.85
2019-01-14T10:23:47.941Z,75.94
2019-01-14T10:26:20.007Z,75.27
2019-01-14T10:28:51.597Z,76.43
2019-01-14T10:31:23.483Z,77.01
2019-01-14T10:33:55.364Z,77.09
2019-01-14T10:36:26.940Z,76.80
2019-01-14T10:38:58.546Z,77.28
2019-01-14T10:41:36.312Z,76.79
2019-01-14T10:44:08.110Z,76.11
2019-01-14T10:46:39.831Z,75.70
2019-01-14T10:49:11.445Z,75.57
2019-01-14T10:51:43.318Z,74.75
2019-01-14T10:54:14.888Z,75.24
2019-01-14T10:56:46.499Z,74.96
2019-01-14T10:59:18.084Z,75.78
2019-01-14T11:01:51.050Z,75.54
2019-01-14T11:04:25.653Z,75.86
2019-01-14T11:06:57.365Z,75.52
2019-01-14T11:09:28.963Z,75.97
2019-01-14T11:12:00.579Z,75.85
2019-01-14T11:14:33.987Z,76.22
2019-01-14T11:17:08.582Z,76.32
2019-01-14T11:19:40.173Z,76.67
2019-01-14T11:22:11.779Z,76.90
2019-01-14T11:24:53.314Z,76.32
2019-01-14T11:27:23.616Z,75.83
2019-01-14T11:29:55.853Z,75.87
2019-01-14T11:32:27.460Z,76.30
2019-01-14T11:34:59.155Z,76.02
2019-01-14T11:37:30.785Z,75.73
2019-01-14T11:40:04.039Z,75.96
2019-01-14T11:42:35.810Z,76.60
2019-01-14T11:45:10.344Z,75.54
2019-01-14T11:47:42.042Z,75.96
2019-01-14T11:50:17.284Z,76.10
2019-01-14T11:52:49.246Z,75.88
2019-01-14T11:55:21.600Z,76.60
2019-01-14T11:57:53.203Z,77.12
2019-01-14T12:00:26.766Z,78.37
2019-01-14T12:02:58.378Z,78.75
2019-01-14T12:05:30.013Z,79.48
2019-01-14T12:08:05.410Z,80.10
2019-01-14T12:10:37.989Z,80.38
2019-01-14T12:13:09.576Z,80.47
2019-01-14T12:15:44.226Z,80.81
2019-01-14T12:18:16.090Z,80.72
2019-01-14T12:20:47.687Z,80.87
2019-01-14T12:23:19.355Z,81.22
2019-01-14T12:25:50.975Z,81.34
2019-01-14T12:28:22.563Z,81.09
2019-01-14T12:30:54.278Z,81.38
2019-01-14T12:33:25.882Z,81.59
2019-01-14T12:35:57.460Z,81.29
2019-01-14T12:38:29.063Z,82.00
2019-01-14T12:41:00.779Z,81.33
2019-01-14T12:43:32.380Z,81.80
2019-01-14T12:46:03.957Z,81.57
2019-01-14T12:48:35.675Z,81.43
2019-01-14T12:51:07.256Z,80.97
2019-01-14T12:53:39.130Z,81.05
2019-01-14T12:56:10.794Z,80.08
2019-01-14T12:58:42.742Z,80.92
2019-01-14T13:01:17.139Z,78.80
2019-01-14T13:03:49.007Z,78.79
2019-01-14T13:06:20.862Z,79.83
2019-01-14T13:08:52.742Z,80.13
2019-01-14T13:11:24.747Z,80.32
2019-01-14T13:13:56.752Z,80.88
2019-01-14T13:16:28.642Z,80.75
2019-01-14T13:19:00.497Z,81.01
2019-01-14T13:21:32.371Z,80.61
2019-01-14T13:24:05.322Z,80.96
2019-01-14T13:26:39.919Z,81.29
2019-01-14T13:29:15.233Z,81.30
2019-01-14T13:31:45.348Z,80.61
2019-01-14T13:34:17.217Z,80.94
2019-01-14T13:36:49.093Z,81.02
2019-01-14T13:39:20.958Z,79.86
2019-01-14T13:41:52.566Z,79.84
2019-01-14T13:44:25.728Z,80.14
2019-01-14T13:46:57.617Z,80.58
2019-01-14T13:49:29.903Z,80.46
2019-01-14T13:52:02.077Z,80.29
2019-01-14T13:54:38.328Z,79.90
2019-01-14T13:57:10.284Z,79.43
2019-01-14T13:59:44.916Z,79.44
2019-01-14T14:02:19.347Z,79.25
2019-01-14T14:04:51.215Z,79.23
2019-01-14T14:07:23.104Z,79.14
2019-01-14T14:09:54.992Z,79.47
2019-01-14T14:12:29.837Z,79.35
2019-01-14T14:15:00.520Z,79.17
2019-01-14T14:17:32.733Z,79.40
2019-01-14T14:20:05.954Z,79.39
2019-01-14T14:22:38.295Z,80.13
2019-01-14T14:25:11.832Z,79.87
2019-01-14T14:27:43.695Z,79.90
2019-01-14T14:30:25.694Z,80.34
2019-01-14T14:32:57.277Z,80.37
2019-01-14T14:35:29.176Z,80.20
2019-01-14T14:38:01.653Z,80.17
2019-01-14T14:40:33.610Z,80.56
2019-01-14T14:43:06.116Z,80.05
2019-01-14T14:45:38.005Z,80.46
2019-01-14T14:48:10.355Z,80.22
2019-01-14T14:50:42.509Z,80.67
2019-01-14T14:53:14.415Z,80.94
2019-01-14T14:55:46.134Z,81.01
2019-01-14T14:58:19.101Z,81.00
2019-01-14T15:00:53.560Z,81.03
2019-01-14T15:03:27.811Z,81.05
2019-01-14T15:05:59.679Z,81.07
2019-01-14T15:08:33.175Z,81.16
2019-01-14T15:11:05.233Z,81.31
2019-01-14T15:13:37.120Z,81.04
2019-01-14T15:16:08.975Z,81.21
2019-01-14T15:18:40.976Z,81.00
2019-01-14T15:21:12.869Z,80.93
2019-01-14T15:23:44.740Z,80.78
2019-01-14T15:26:16.439Z,80.62
2019-01-14T15:28:48.442Z,80.40
2019-01-14T15:31:20.470Z,80.13
2019-01-14T15:33:52.316Z,79.89
2019-01-14T15:36:24.232Z,79.67
2019-01-14T15:38:56.091Z,79.68
2019-01-14T15:41:27.999Z,79.87
2019-01-14T15:44:00.434Z,79.39
2019-01-14T15:46:32.315Z,79.29
2019-01-14T15:49:04.210Z,79.11
2019-01-14T15:51:39.034Z,79.21
2019-01-14T15:54:11.029Z,78.88
2019-01-14T15:56:43.038Z,79.13
2019-01-14T15:59:14.936Z,79.40
2019-01-14T16:01:46.821Z,79.43
2019-01-14T16:04:18.702Z,79.14
2019-01-14T16:06:50.597Z,79.57
2019-01-14T16:09:25.226Z,79.22
2019-01-14T16:11:57.235Z,79.49
2019-01-14T16:14:29.205Z,79.65
2019-01-14T16:17:01.243Z,79.72
2019-01-14T16:19:33.099Z,79.46
2019-01-14T16:22:07.737Z,79.40
2019-01-14T16:24:39.723Z,79.33
2019-01-14T16:27:11.648Z,79.22
2019-01-14T16:29:44.773Z,78.97
2019-01-14T16:32:19.377Z,79.01
2019-01-14T16:34:51.040Z,78.92
2019-01-14T16:37:23.032Z,79.18
2019-01-14T16:39:55.052Z,79.34
2019-01-14T16:42:26.810Z,79.49
2019-01-14T16:44:58.805Z,79.69
2019-01-14T16:47:31.917Z,79.86
2019-01-14T16:50:03.899Z,80.08
2019-01-14T16:52:35.887Z,79.82
2019-01-14T16:55:08.814Z,79.91
2019-01-14T16:57:40.702Z,79.85
2019-01-14T17:00:16.976Z,79.92
2019-01-14T17:02:48.960Z,79.87
2019-01-14T17:05:20.873Z,79.91
2019-01-14T17:07:52.793Z,79.38
2019-01-14T17:10:25.342Z,79.46
2019-01-14T17:12:57.351Z,79.66
2019-01-14T17:15:29.275Z,79.74
2019-01-14T17:18:01.184Z,79.76
2019-01-14T17:20:33.072Z,79.91
2019-01-14T17:23:05.015Z,80.23
2019-01-14T17:25:36.976Z,80.45
2019-01-14T17:28:10.991Z,80.16
2019-01-14T17:30:43.156Z,80.03
2019-01-14T17:33:15.067Z,80.06
2019-01-14T17:35:47.049Z,79.66
2019-01-14T17:38:19.126Z,79.45
2019-01-14T17:40:51.033Z,79.65
2019-01-14T17:43:22.933Z,79.42
2019-01-14T17:45:54.965Z,79.38
2019-01-14T17:48:27.006Z,79.39
2019-01-14T17:50:58.894Z,79.44
2019-01-14T17:53:30.791Z,79.39
2019-01-14T17:56:02.690Z,78.37
2019-01-14T17:58:34.733Z,78.47
2019-01-14T18:01:06.755Z,78.50
2019-01-14T18:03:38.733Z,78.72
2019-01-14T18:06:10.790Z,78.96
2019-01-14T18:08:42.710Z,78.82
2019-01-14T18:11:14.611Z,78.74
2019-01-14T18:13:46.501Z,78.61
2019-01-14T18:16:18.525Z,78.48
2019-01-14T18:18:50.455Z,78.39
2019-01-14T18:21:23.438Z,78.79
2019-01-14T18:23:55.354Z,78.46
2019-01-14T18:26:27.251Z,78.73
2019-01-14T18:28:59.620Z,78.75
2019-01-14T18:31:31.621Z,77.97
2019-01-14T18:34:07.360Z,77.89
2019-01-14T18:36:38.858Z,77.75
2019-01-14T18:39:11.395Z,77.15
2019-01-14T18:41:43.316Z,77.41
2019-01-14T18:44:15.228Z,77.46
2019-01-14T18:46:49.165Z,77.44
2019-01-14T18:49:21.785Z,77.29
2019-01-14T18:51:53.774Z,77.22
2019-01-14T18:54:27.154Z,77.31
2019-01-14T18:56:59.138Z,77.14
2019-01-14T18:59:31.061Z,76.79
2019-01-14T19:02:05.338Z,76.63
2019-01-14T19:04:37.264Z,76.88
2019-01-14T19:07:11.048Z,77.04
2019-01-14T19:09:43.063Z,76.74
2019-01-14T19:12:14.970Z,76.89
2019-01-14T19:14:46.956Z,76.79
2019-01-14T19:17:18.978Z,76.91
2019-01-14T19:19:50.862Z,76.61
2019-01-14T19:22:22.861Z,76.59
2019-01-14T19:24:54.896Z,76.50
2019-01-14T19:27:26.835Z,76.27
2019-01-14T19:29:58.713Z,75.67
2019-01-14T19:32:30.657Z,75.67
2019-01-14T19:35:02.578Z,75.78
2019-01-14T19:37:34.613Z,76.03
2019-01-14T19:40:10.431Z,75.96
2019-01-14T19:42:42.361Z,75.83
2019-01-14T19:45:16.648Z,75.92
2019-01-14T19:47:49.169Z,75.89
2019-01-14T19:50:25.275Z,76.08
2019-01-14T19:52:58.351Z,76.19
2019-01-14T19:55:30.342Z,76.17
2019-01-14T19:58:05.238Z,76.03
2019-01-14T20:00:37.150Z,75.88
2019-01-14T20:03:09.204Z,75.81
2019-01-14T20:05:41.094Z,75.95
2019-01-14T20:08:14.909Z,75.89
2019-01-14T20:10:46.827Z,75.49
2019-01-14T20:13:20.143Z,75.79
2019-01-14T20:15:52.078Z,75.78
2019-01-14T20:18:23.987Z,75.90
2019-01-14T20:20:55.901Z,75.78
2019-01-14T20:23:27.846Z,75.88
2019-01-14T20:25:59.824Z,76.02
2019-01-14T20:28:31.744Z,75.88
2019-01-14T20:31:03.747Z,75.95
2019-01-14T20:33:37.289Z,75.48
2019-01-14T20:36:09.365Z,75.35
2019-01-14T20:38:41.378Z,75.35
2019-01-14T20:41:17.585Z,74.59
2019-01-14T20:43:47.111Z,75.04
2019-01-14T20:46:19.064Z,74.58
2019-01-14T20:48:51.348Z,74.66
2019-01-14T20:51:23.374Z,74.12
2019-01-14T20:53:55.241Z,74.24
2019-01-14T20:56:27.270Z,74.08
2019-01-14T20:58:59.366Z,73.92
2019-01-14T21:01:31.265Z,74.06
2019-01-14T21:04:03.403Z,73.70
2019-01-14T21:06:35.366Z,73.68
2019-01-14T21:09:08.567Z,73.71
2019-01-14T21:11:40.515Z,73.32
2019-01-14T21:14:12.411Z,72.95
2019-01-14T21:16:44.445Z,73.52
2019-01-14T21:19:16.335Z,73.51
2019-01-14T21:21:48.216Z,73.40
2019-01-14T21:24:20.227Z,73.51
2019-01-14T21:26:52.159Z,73.51
2019-01-14T21:29:26.042Z,73.36
2019-01-14T21:31:57.640Z,73.55
2019-01-14T21:34:29.553Z,73.54
2019-01-14T21:37:01.534Z,73.24
2019-01-14T21:39:33.193Z,73.30
2019-01-14T21:42:05.091Z,73.25
2019-01-14T21:44:37.022Z,73.49
2019-01-14T21:47:08.931Z,73.41
2019-01-14T21:49:40.990Z,73.23
2019-01-14T21:52:12.914Z,72.89
2019-01-14T21:54:45.881Z,73.26
2019-01-14T21:57:17.793Z,72.84
2019-01-14T21:59:49.799Z,71.87
2019-01-14T22:02:21.744Z,72.13
2019-01-14T22:04:55.810Z,71.67
2019-01-14T22:07:30.304Z,72.71
2019-01-14T22:10:02.173Z,72.00
2019-01-14T22:12:34.076Z,71.44
2019-01-14T22:15:07.589Z,71.83
2019-01-14T22:17:40.053Z,72.67
2019-01-14T22:20:16.751Z,72.30
2019-01-14T22:22:49.229Z,71.70
2019-01-14T22:25:21.192Z,72.20
2019-01-14T22:27:53.151Z,72.13
2019-01-14T22:30:33.627Z,71.92
2019-01-14T22:33:05.608Z,72.31
2019-01-14T22:35:37.476Z,72.45
2019-01-14T22:38:09.354Z,72.48
2019-01-14T22:40:42.863Z,72.12
2019-01-14T22:43:14.768Z,72.68
2019-01-14T22:45:46.744Z,72.79
2019-01-14T22:48:18.736Z,72.82
2019-01-14T22:50:50.770Z,72.61
2019-01-14T22:53:22.690Z,72.67
2019-01-14T22:55:57.867Z,73.18
2019-01-14T22:58:29.739Z,73.21
2019-01-14T23:01:34.591Z,72.90
2019-01-14T23:04:06.639Z,73.03
2019-01-14T23:06:40.412Z,73.58
2019-01-14T23:09:12.399Z,73.75
2019-01-14T23:11:44.290Z,73.58
2019-01-14T23:14:16.155Z,73.66
2019-01-14T23:16:48.056Z,73.51
2019-01-14T23:19:20.048Z,73.70
2019-01-14T23:21:51.955Z,73.81
2019-01-14T23:24:23.813Z,73.94
2019-01-14T23:26:56.985Z,74.13
2019-01-14T23:29:31.292Z,74.26
2019-01-14T23:32:03.169Z,74.42
2019-01-14T23:34:35.046Z,74.83
2019-01-14T23:37:08.542Z,74.98
2019-01-14T23:39:40.409Z,75.09
2019-01-14T23:42:15.309Z,75.09
2019-01-14T23:44:47.190Z,75.18
2019-01-14T23:47:21.858Z,75.06
2019-01-14T23:49:54.864Z,75.23
2019-01-14T23:52:26.845Z,75.61
2019-01-14T23:54:58.761Z,75.85
2019-01-14T23:57:30.622Z,76.07
